Time;durP1;ratioP1;P1;durP2;ratioP2;P2;SDS_P1;SDS_P2;PMS_P1;PMS_P2;Temp;Humidity;BMP_temperature;BMP_pressure;BME280_temperature;BME280_humidity;BME280_pressure;Samples;Min_cycle;Max_cycle;Signal;HPM_P1;HPM_P2
2020/12/05 00:01:43;;;;;;;41.50;22.62;;;;;;;6.53;73.34;98958.22;4288849;28;34567;-90
2020/12/05 00:04:15;;;;;;;40.03;23.05;;;;;;;6.81;72.20;98963.87;4223085;28;34441;-88
2020/12/05 00:06:47;;;;;;;40.97;22.37;;;;;;;6.88;71.76;98962.09;4365017;28;34580;-95
2020/12/05 00:09:46;;;;;;;40.10;21.48;;;;;;;6.82;71.53;98962.81;4234920;28;34728;-92
2020/12/05 00:12:18;;;;;;;41.90;21.30;;;;;;;6.28;73.65;98961.09;4183372;33;32207;-92
2020/12/05 00:15:04;;;;;;;44.78;21.95;;;;;;;6.24;74.01;98958.94;4177191;28;32748;-89
2020/12/05 00:17:39;;;;;;;42.17;22.92;;;;;;;6.24;74.34;98957.09;4180992;34;32391;-96
2020/12/05 00:20:13;;;;;;;41.35;22.33;;;;;;;6.06;74.62;98961.91;4329627;28;34759;-94
2020/12/05 00:22:46;;;;;;;41.72;22.00;;;;;;;6.17;74.30;98964.19;4308858;28;34445;-92
2020/12/05 00:25:22;;;;;;;45.75;25.85;;;;;;;6.25;74.10;98953.41;4250047;28;33336;-96
2020/12/05 00:27:55;;;;;;;43.78;23.30;;;;;;;5.96;75.08;98954.91;4214561;28;32515;-90
2020/12/05 00:30:28;;;;;;;46.22;24.12;;;;;;;6.29;73.80;98945.84;4196077;28;33815;-89
2020/12/05 00:33:01;;;;;;;41.53;22.17;;;;;;;6.19;74.09;98951.44;4264155;28;31621;-96
2020/12/05 00:36:16;;;;;;;47.08;24.23;;;;;;;6.15;74.09;98953.66;4369456;28;33917;-90
2020/12/05 00:39:04;;;;;;;45.67;22.05;;;;;;;6.39;73.27;98957.16;4375720;28;33211;-93
2020/12/05 00:41:40;;;;;;;41.05;24.12;;;;;;;6.05;74.67;98958.41;4193322;34;33730;-96
2020/12/05 00:44:13;;;;;;;49.38;24.58;;;;;;;5.78;75.74;98965.91;4275926;28;33111;-96
2020/12/05 00:46:47;;;;;;;45.97;23.62;;;;;;;5.91;75.17;98975.22;4200904;33;34209;-96
2020/12/05 00:49:22;;;;;;;49.17;24.60;;;;;;;5.82;75.52;98967.22;4187474;34;34824;-92
2020/12/05 00:51:57;;;;;;;46.37;23.85;;;;;;;5.90;75.11;98965.50;4210688;34;34938;-91
2020/12/05 00:54:47;;;;;;;45.72;23.50;;;;;;;6.03;74.38;98973.00;4219295;28;33808;-96
2020/12/05 01:00:12;;;;;;;45.42;22.90;;;;;;;6.19;73.98;98973.72;4257705;28;34079;-94
2020/12/05 01:03:12;;;;;;;49.60;23.98;;;;;;;6.21;73.29;98978.91;4283295;28;34931;-90
2020/12/05 01:06:10;;;;;;;42.13;22.77;;;;;;;6.08;74.17;98981.34;4204159;34;20194;-91
2020/12/05 01:09:12;;;;;;;42.33;23.38;;;;;;;6.27;73.34;98978.22;4012778;28;20107;-88
2020/12/05 01:11:47;;;;;;;47.42;23.15;;;;;;;5.61;76.35;98980.37;4188120;34;34728;-96
2020/12/05 01:14:20;;;;;;;42.72;23.12;;;;;;;5.99;74.52;98996.69;4177348;34;34038;-89
2020/12/05 01:16:52;;;;;;;45.33;23.98;;;;;;;6.19;73.84;98992.50;4177017;34;35199;-90
2020/12/05 01:19:24;;;;;;;45.55;22.83;;;;;;;5.86;75.11;98999.06;4176506;34;33707;-96
2020/12/05 01:21:57;;;;;;;48.03;24.60;;;;;;;5.80;75.41;99004.09;4164550;34;32990;-91
2020/12/05 01:24:30;;;;;;;41.00;22.17;;;;;;;5.95;74.67;99004.19;4167173;34;33542;-96
2020/12/05 01:27:18;;;;;;;45.08;23.45;;;;;;;5.84;75.49;99000.06;4157564;34;33744;-91
2020/12/05 01:29:51;;;;;;;45.65;22.70;;;;;;;5.88;74.96;98997.84;4162473;34;35557;-89
2020/12/05 01:32:24;;;;;;;42.67;23.92;;;;;;;6.00;74.87;98985.75;4158296;34;35467;-90
2020/12/05 01:34:56;;;;;;;45.30;24.33;;;;;;;5.82;75.53;98994.03;4179234;34;33562;-93
2020/12/05 01:37:30;;;;;;;44.22;23.50;;;;;;;5.82;75.42;98980.63;4155804;34;33887;-95
2020/12/05 01:40:04;;;;;;;47.95;24.85;;;;;;;5.95;74.92;98989.94;4179231;34;33926;-91
2020/12/05 01:42:37;;;;;;;41.42;23.67;;;;;;;5.75;75.66;98982.34;4168599;34;33062;-93
2020/12/05 01:45:12;;;;;;;40.08;23.40;;;;;;;5.87;75.22;98985.47;4177409;34;34590;-89
2020/12/05 01:47:45;;;;;;;43.78;23.33;;;;;;;5.69;76.20;98982.19;4167231;34;33906;-96
2020/12/05 01:50:39;;;;;;;41.83;22.55;;;;;;;5.86;75.33;98982.97;4165690;34;34988;-96
2020/12/05 01:53:15;;;;;;;46.85;23.27;;;;;;;6.18;74.34;98981.94;4156891;34;33196;-96
2020/12/05 01:56:15;;;;;;;49.17;25.60;;;;;;;6.27;73.83;98980.91;4144370;34;33707;-89
2020/12/05 01:58:49;;;;;;;46.78;26.65;;;;;;;5.95;75.25;98981.91;4164058;34;34102;-96
2020/12/05 02:01:47;;;;;;;;;;;;;;;5.76;75.95;98983.16;4160643;34;34882;-92
2020/12/05 02:04:20;;;;;;;39.15;21.75;;;;;;;5.96;75.47;98980.91;4156415;34;34639;-96
2020/12/05 02:07:15;;;;;;;47.55;23.92;;;;;;;5.84;76.01;98975.09;4163648;34;33824;-90
2020/12/05 02:09:50;;;;;;;41.37;23.65;;;;;;;5.84;75.89;98975.09;4177966;34;33569;-89
2020/12/05 02:12:33;;;;;;;39.85;22.98;;;;;;;6.02;75.43;98990.94;4167544;34;33751;-93
2020/12/05 02:15:27;;;;;;;42.75;23.83;;;;;;;5.95;75.46;98987.28;4164722;34;34640;-96
2020/12/05 02:18:03;;;;;;;40.55;22.67;;;;;;;5.74;76.27;98990.56;4156136;34;33692;-93
2020/12/05 02:20:37;;;;;;;44.47;23.40;;;;;;;5.91;75.48;98986.75;4167117;34;33309;-90
2020/12/05 02:23:19;;;;;;;44.28;22.60;;;;;;;5.88;75.99;98989.81;4169818;34;33811;-96
2020/12/05 02:26:29;;;;;;;47.10;23.50;;;;;;;5.88;75.89;98986.28;4156572;34;34323;-96
2020/12/05 02:29:12;;;;;;;43.35;22.35;;;;;;;5.98;75.12;98987.78;4154405;34;34598;-90
2020/12/05 02:31:45;;;;;;;48.30;23.65;;;;;;;5.74;76.14;98986.03;4155582;34;33280;-92
2020/12/05 02:34:18;;;;;;;44.03;22.48;;;;;;;5.98;74.76;98978.91;4171182;28;32768;-96
2020/12/05 02:36:56;;;;;;;43.30;22.90;;;;;;;6.12;74.59;98988.88;4324276;28;33118;31
2020/12/05 02:39:30;;;;;;;43.55;23.45;;;;;;;6.15;74.40;98980.47;4306798;28;31564;-89
2020/12/05 02:42:11;;;;;;;42.45;22.77;;;;;;;6.31;73.72;98998.31;4484953;28;33330;31
2020/12/05 02:45:08;;;;;;;41.88;21.58;;;;;;;6.29;73.72;98983.41;4286744;28;33127;-89
2020/12/05 02:47:42;;;;;;;47.22;23.60;;;;;;;6.07;74.80;99001.16;4299697;28;33749;-88
2020/12/05 02:50:36;;;;;;;48.27;24.90;;;;;;;6.38;73.40;98998.44;4591728;28;34746;31
2020/12/05 02:53:09;;;;;;;44.45;24.45;;;;;;;6.13;74.09;99001.28;4289437;28;33772;-88
2020/12/05 02:55:46;;;;;;;51.28;27.17;;;;;;;6.29;73.90;99004.88;4417178;28;33938;31
2020/12/05 03:01:09;;;;;;;45.12;22.87;;;;;;;6.00;74.75;99007.22;4286680;28;32584;-94
2020/12/05 03:03:56;;;;;;;41.17;23.55;;;;;;;5.99;75.06;98999.34;4030003;28;33941;-89
2020/12/05 03:06:49;;;;;;;44.45;23.30;;;;;;;5.97;75.08;98996.84;4261775;28;35426;-96
2020/12/05 03:09:22;;;;;;;42.92;23.27;;;;;;;6.19;74.74;99005.91;4229333;28;33637;-89
2020/12/05 03:15:04;;;;;;;41.97;22.25;;;;;;;6.39;74.24;99024.25;4279372;28;33863;-89
2020/12/05 03:20:38;;;;;;;47.95;24.95;;;;;;;6.46;74.28;99011.78;4178816;28;33948;-89
2020/12/05 03:23:17;;;;;;;45.67;24.08;;;;;;;6.33;74.98;99007.03;4189814;28;32107;-96
2020/12/05 03:26:01;;;;;;;43.40;22.50;;;;;;;6.09;75.72;99005.34;4425634;28;34255;31
2020/12/05 03:28:36;;;;;;;41.55;22.25;;;;;;;6.65;73.91;99009.66;4154063;34;35362;-93
2020/12/05 03:31:15;;;;;;;42.47;24.67;;;;;;;6.34;75.06;99018.59;4276177;29;34256;-89
2020/12/05 03:37:14;;;;;;;46.42;23.92;;;;;;;6.30;75.20;99014.59;4174342;34;33641;-90
2020/12/05 03:39:46;;;;;;;41.90;22.52;;;;;;;6.09;76.16;99016.06;4349553;28;34394;-90
2020/12/05 03:42:19;;;;;;;40.75;22.83;;;;;;;6.43;75.10;99020.19;4323294;28;33839;-91
2020/12/05 03:44:51;;;;;;;46.70;23.35;;;;;;;6.33;75.22;99015.09;4352080;28;33294;-93
2020/12/05 03:50:32;;;;;;;38.03;22.48;;;;;;;6.41;75.33;99014.19;4164990;34;33346;-90
2020/12/05 03:53:04;;;;;;;39.78;21.87;;;;;;;6.75;73.79;99021.00;4163208;34;33590;-96
2020/12/05 03:55:37;;;;;;;44.60;23.83;;;;;;;6.77;73.51;99005.53;4127893;34;34344;-91
2020/12/05 03:58:33;;;;;;;40.67;21.33;;;;;;;6.78;73.37;99004.53;4139316;34;35231;-92
2020/12/05 04:01:06;;;;;;;39.20;22.02;;;;;;;6.43;74.92;99012.16;4137755;34;33840;-95
2020/12/05 04:03:51;;;;;;;42.33;23.20;;;;;;;6.49;74.80;99013.28;4124603;34;35606;-89
2020/12/05 04:06:23;;;;;;;39.33;22.40;;;;;;;6.39;75.04;99010.81;4123843;34;33918;-89
2020/12/05 04:08:56;;;;;;;40.90;22.70;;;;;;;6.66;74.09;99011.31;4131516;34;35002;-90
2020/12/05 04:11:28;;;;;;;40.60;23.42;;;;;;;6.26;75.70;99015.97;4133795;34;33422;-90
2020/12/05 04:14:01;;;;;;;44.17;22.23;;;;;;;5.99;76.60;99018.97;4200908;29;33790;-95
2020/12/05 04:16:33;;;;;;;41.03;23.62;;;;;;;6.50;74.92;99010.44;4133032;29;33857;-91
2020/12/05 04:19:12;;;;;;;47.72;21.98;;;;;;;6.14;76.25;99018.22;4357863;28;33322;31
2020/12/05 04:21:44;;;;;;;42.03;21.83;;;;;;;6.32;75.73;99023.31;4176482;34;34337;-93
2020/12/05 04:24:20;;;;;;;38.80;23.35;;;;;;;6.23;75.88;99018.97;4180369;34;33708;-96
2020/12/05 04:26:53;;;;;;;39.53;23.65;;;;;;;6.46;75.09;99027.06;4155741;34;34526;-90
2020/12/05 04:29:26;;;;;;;37.80;22.92;;;;;;;6.56;74.80;99032.19;4154006;34;35225;-91
2020/12/05 04:32:07;;;;;;;35.60;22.10;;;;;;;6.59;74.59;99029.19;4237882;28;33309;31
2020/12/05 04:35:04;;;;;;;40.88;23.30;;;;;;;6.45;75.15;99030.75;4211332;28;33419;-89
2020/12/05 04:38:04;;;;;;;47.28;23.98;;;;;;;6.09;76.54;99036.69;4289372;28;34110;-96
2020/12/05 04:40:36;;;;;;;39.42;22.35;;;;;;;6.22;75.50;99036.94;4324323;28;34383;-90
2020/12/05 04:43:09;;;;;;;37.05;20.55;;;;;;;6.36;75.69;99032.66;4205619;34;33518;-96
2020/12/05 04:46:17;;;;;;;39.45;22.55;;;;;;;6.59;74.48;99047.97;4261200;28;34789;31
2020/12/05 04:49:42;;;;;;;38.47;22.27;;;;;;;6.77;73.76;99042.31;1255307;28;34921;-94
2020/12/05 04:59:18;;;;;;;42.45;22.42;;;;;;;6.62;73.86;99043.06;3538497;28;20139;-93
2020/12/05 05:06:05;;;;;;;40.08;22.00;;;;;;;6.18;75.39;99041.84;3677237;28;20481;-90
2020/12/05 05:08:37;;;;;;;46.75;24.33;;;;;;;6.13;75.76;99057.63;4162686;34;34581;-91
2020/12/05 05:11:12;;;;;;;43.55;23.98;;;;;;;6.47;73.63;99056.44;4163048;34;33635;-91
2020/12/05 05:14:13;;;;;;;42.72;22.75;;;;;;;6.29;74.57;99061.25;4290950;28;34385;-89
2020/12/05 05:16:46;;;;;;;43.63;22.00;;;;;;;6.54;73.86;99062.75;4391689;28;33493;-89
2020/12/05 05:19:21;;;;;;;41.50;22.25;;;;;;;6.73;72.64;99065.97;4198624;28;33460;-92
2020/12/05 05:21:53;;;;;;;39.28;23.25;;;;;;;6.23;74.30;99075.34;4152960;34;34751;-94
2020/12/05 05:28:05;;;;;;;38.65;23.52;;;;;;;6.22;74.64;99082.56;4192765;28;33661;-91
2020/12/05 05:34:07;;;;;;;40.08;22.42;;;;;;;5.81;76.13;99083.53;4345492;28;34726;-89
2020/12/05 05:36:42;;;;;;;39.17;22.58;;;;;;;6.50;73.15;99069.50;4156358;34;32088;-89
2020/12/05 05:39:19;;;;;;;44.60;22.85;;;;;;;6.52;73.39;99064.78;4255197;28;34395;-96
2020/12/05 05:42:28;;;;;;;42.20;22.70;;;;;;;6.30;73.95;99076.31;4376033;28;20225;-89
2020/12/05 05:45:20;;;;;;;38.63;21.77;;;;;;;5.99;75.32;99085.19;4176081;33;34589;-96
2020/12/05 05:49:12;;;;;;;43.15;25.42;;;;;;;6.30;73.62;99084.38;4213534;28;34608;31
2020/12/05 05:51:47;;;;;;;43.90;25.52;;;;;;;6.53;72.98;99101.34;4162705;34;33770;-92
2020/12/05 05:54:28;;;;;;;45.47;24.90;;;;;;;6.39;73.37;99110.16;4226958;28;34499;-91
2020/12/05 05:57:10;;;;;;;50.60;26.50;;;;;;;6.27;73.50;99107.03;4282228;28;33326;-90
2020/12/05 05:59:45;;;;;;;46.92;24.87;;;;;;;6.48;73.03;99119.00;4160366;34;34492;-90
2020/12/05 06:02:18;;;;;;;41.75;25.08;;;;;;;6.35;74.00;99127.62;4256173;28;34062;-89
2020/12/05 06:05:27;;;;;;;47.90;22.80;;;;;;;6.32;74.08;99123.44;4268414;28;33768;31
2020/12/05 06:08:35;;;;;;;40.42;23.40;;;;;;;6.48;73.58;99122.53;4220252;28;35565;-91
2020/12/05 06:11:10;;;;;;;40.80;24.87;;;;;;;6.07;75.39;99128.06;4199911;28;34577;-90
2020/12/05 06:13:43;;;;;;;41.22;22.98;;;;;;;6.01;75.46;99120.72;4358702;28;34786;-89
2020/12/05 06:16:24;;;;;;;47.83;25.20;;;;;;;6.34;74.06;99113.34;4422452;28;33631;-91
2020/12/05 06:18:57;;;;;;;44.75;25.80;;;;;;;6.12;75.31;99130.25;4216692;28;31534;-96
2020/12/05 06:21:54;;;;;;;45.72;25.75;;;;;;;6.51;73.77;99132.06;4173895;34;35867;-96
2020/12/05 06:25:13;;;;;;;44.72;24.27;;;;;;;6.01;75.89;99128.78;4145821;34;32600;-93
2020/12/05 06:28:00;;;;;;;47.55;24.87;;;;;;;6.35;74.19;99131.16;4257791;28;34331;-91
2020/12/05 06:30:33;;;;;;;44.83;24.73;;;;;;;6.03;75.56;99126.75;4380463;28;34566;-89
2020/12/05 06:33:07;;;;;;;45.55;24.25;;;;;;;6.39;74.18;99128.94;4304067;28;33981;-86
2020/12/05 06:35:39;;;;;;;40.00;24.20;;;;;;;6.21;74.84;99133.72;4254098;28;32602;-89
2020/12/05 06:38:15;;;;;;;40.28;24.33;;;;;;;6.56;73.64;99135.06;4195110;34;35221;-89
2020/12/05 06:40:51;;;;;;;43.22;23.48;;;;;;;5.87;76.54;99143.72;4206938;34;34536;-89
2020/12/05 06:43:24;;;;;;;41.53;22.95;;;;;;;6.33;74.95;99138.56;4379261;28;33584;-89
2020/12/05 06:45:59;;;;;;;44.53;23.80;;;;;;;6.03;75.91;99140.16;4198891;34;32098;-89
2020/12/05 06:48:32;;;;;;;45.33;24.73;;;;;;;6.45;74.22;99133.63;4238649;28;33483;-89
2020/12/05 06:51:05;;;;;;;41.42;23.87;;;;;;;6.58;73.89;99143.78;4268121;28;226841;-88
2020/12/05 06:53:37;;;;;;;43.80;24.27;;;;;;;6.35;75.01;99138.38;4243224;28;33028;-94
2020/12/05 06:56:17;;;;;;;45.38;25.02;;;;;;;5.88;76.91;99155.25;4387611;28;34363;-89
2020/12/05 06:58:57;;;;;;;41.25;23.12;;;;;;;6.66;74.04;99156.31;4310817;28;31973;-96
2020/12/05 07:01:39;;;;;;;41.28;23.27;;;;;;;6.69;73.65;99169.41;4187040;34;33789;-92
2020/12/05 07:04:27;;;;;;;41.92;24.33;;;;;;;6.53;74.50;99168.47;4230859;28;33871;-94
2020/12/05 07:07:29;;;;;;;42.13;24.40;;;;;;;6.31;75.08;99170.06;4308905;28;33040;-93
2020/12/05 07:10:01;;;;;;;41.90;22.92;;;;;;;6.23;75.71;99169.25;4191568;34;33383;-89
2020/12/05 07:12:38;;;;;;;42.65;23.27;;;;;;;6.66;74.11;99175.12;4329535;28;35317;-88
2020/12/05 07:15:39;;;;;;;49.05;25.10;;;;;;;6.60;74.19;99165.09;4196444;33;34412;-90
2020/12/05 07:18:27;;;;;;;44.58;24.67;;;;;;;6.56;74.63;99166.44;4404472;28;34372;-88
2020/12/05 07:21:38;;;;;;;39.58;23.67;;;;;;;6.31;75.26;99174.62;4241059;28;34298;31
2020/12/05 07:24:11;;;;;;;40.97;23.45;;;;;;;6.59;74.96;99166.12;4213906;28;32771;-96
2020/12/05 07:27:02;;;;;;;42.85;24.40;;;;;;;6.92;73.49;99163.25;4177784;34;34481;-92
2020/12/05 07:29:35;;;;;;;42.25;24.02;;;;;;;6.15;76.44;99165.63;4181162;34;32379;-96
2020/12/05 07:32:43;;;;;;;37.85;22.98;;;;;;;6.43;76.03;99173.22;4260264;28;20127;-89
2020/12/05 07:35:16;;;;;;;39.22;21.87;;;;;;;7.18;73.39;99163.72;4158779;34;34588;-89
2020/12/05 07:37:48;;;;;;;42.97;23.08;;;;;;;7.14;73.25;99167.78;4146677;34;33773;-89
2020/12/05 07:40:30;;;;;;;42.97;23.35;;;;;;;7.34;73.02;99164.63;4444785;28;32969;-88
2020/12/05 07:43:03;;;;;;;35.08;21.33;;;;;;;8.14;70.18;99173.91;4277215;28;32552;-88
2020/12/05 07:45:38;;;;;;;35.88;21.02;;;;;;;7.90;70.76;99172.31;4381413;28;33588;31
2020/12/05 07:48:24;;;;;;;37.03;20.27;;;;;;;8.04;70.38;99165.28;4215566;28;32564;-96
2020/12/05 07:51:03;;;;;;;40.55;21.10;;;;;;;7.84;70.78;99170.37;4169994;34;33734;-96
2020/12/05 07:53:52;;;;;;;;;;;;;;;7.70;72.15;99169.34;4188037;33;20143;-93
2020/12/05 07:56:45;;;;;;;34.75;20.48;;;;;;;7.92;71.10;99168.44;4182625;34;34576;-96
2020/12/05 07:59:29;;;;;;;31.45;20.52;;;;;;;8.59;69.18;99169.38;4211792;33;33879;-88
2020/12/05 08:02:14;;;;;;;33.75;21.05;;;;;;;7.91;71.20;99177.53;4189861;34;34398;-96
2020/12/05 08:05:16;;;;;;;31.02;18.95;;;;;;;8.52;69.38;99179.22;4172718;34;34403;-96
2020/12/05 08:08:01;;;;;;;32.72;20.90;;;;;;;8.44;69.95;99184.69;4144507;34;34359;-94
2020/12/05 08:10:46;;;;;;;30.83;19.77;;;;;;;8.62;69.25;99184.31;4181865;34;33597;-90
2020/12/05 08:13:28;;;;;;;33.90;21.35;;;;;;;9.30;67.07;99187.56;4184770;34;35923;-92
2020/12/05 08:16:07;;;;;;;37.92;21.87;;;;;;;9.36;66.44;99186.78;4187282;34;35279;-96
2020/12/05 08:18:40;;;;;;;35.75;20.73;;;;;;;8.48;69.39;99194.91;4175937;34;36794;-87
2020/12/05 08:21:17;;;;;;;35.88;21.98;;;;;;;9.21;67.79;99183.31;4200920;28;34085;-96
2020/12/05 08:31:08;;;;;;;33.40;18.58;;;;;;;9.88;65.58;99186.59;4225545;28;20392;-89
2020/12/05 08:33:48;;;;;;;31.75;20.88;;;;;;;9.92;65.61;99179.75;4160630;34;32798;-92
2020/12/05 08:36:34;;;;;;;28.27;18.75;;;;;;;9.93;66.14;99181.44;4158916;34;33963;-89
2020/12/05 08:39:25;;;;;;;33.83;19.33;;;;;;;10.03;65.41;99190.03;4156418;34;36013;-90
2020/12/05 08:41:58;;;;;;;29.35;19.45;;;;;;;10.48;64.70;99189.69;4172444;34;33879;-93
2020/12/05 08:44:32;;;;;;;27.58;17.65;;;;;;;10.69;64.09;99186.06;4473038;28;34038;31
2020/12/05 08:47:10;;;;;;;29.77;19.05;;;;;;;10.82;63.67;99189.84;4137933;34;33051;-96
2020/12/05 08:49:45;;;;;;;31.33;18.47;;;;;;;10.39;64.22;99180.91;4129530;34;34987;-91
2020/12/05 08:55:59;;;;;;;27.60;16.94;;;;;;;10.78;64.07;99190.25;4828105;28;20105;31
2020/12/05 08:58:59;;;;;;;25.20;16.73;;;;;;;11.48;61.65;99203.53;3088854;28;35086;-91
2020/12/05 09:01:49;;;;;;;28.38;17.37;;;;;;;11.69;61.08;99200.81;4200673;28;31354;-96
2020/12/05 09:04:50;;;;;;;25.52;15.57;;;;;;;11.36;61.24;99201.63;4396660;28;20105;-95
2020/12/05 09:07:55;;;;;;;25.42;15.90;;;;;;;12.09;59.71;99207.06;4269464;28;32105;-95
2020/12/05 09:11:39;;;;;;;26.37;16.73;;;;;;;12.13;59.26;99208.31;4488192;28;20190;-96
2020/12/05 09:14:34;;;;;;;24.73;16.27;;;;;;;12.41;57.82;99209.94;4476972;28;30777;-95
2020/12/05 09:17:34;;;;;;;27.17;16.42;;;;;;;12.53;57.81;99197.41;4148114;29;34172;-92
2020/12/05 09:20:41;;;;;;;23.02;16.02;;;;;;;13.29;56.57;99183.28;4108105;34;35188;-92
2020/12/05 09:23:15;;;;;;;21.12;13.85;;;;;;;14.18;53.34;99175.88;4102217;34;33158;-89
2020/12/05 09:25:47;;;;;;;20.15;14.07;;;;;;;15.91;49.23;99182.78;4100679;34;35077;-93
2020/12/05 09:28:25;;;;;;;21.77;14.43;;;;;;;16.16;48.16;99179.00;4102236;34;34692;-91
2020/12/05 09:30:58;;;;;;;23.25;15.00;;;;;;;16.88;46.33;99175.94;4113364;34;34598;-92
2020/12/05 09:33:31;;;;;;;23.20;16.40;;;;;;;16.58;46.12;99184.28;4126304;34;33846;-91
2020/12/05 09:36:04;;;;;;;27.02;16.00;;;;;;;16.08;47.52;99185.66;4111491;34;35036;-91
2020/12/05 09:38:39;;;;;;;22.62;16.12;;;;;;;17.86;43.73;99185.87;4128398;34;33148;-93
2020/12/05 09:41:12;;;;;;;21.80;16.15;;;;;;;18.57;41.50;99179.00;4120169;34;34083;-94
2020/12/05 09:43:56;;;;;;;28.62;18.52;;;;;;;18.58;41.25;99180.63;4145380;34;34602;-96
2020/12/05 09:46:29;;;;;;;21.35;16.05;;;;;;;18.42;41.85;99174.97;4145876;29;35149;-93
2020/12/05 09:49:05;;;;;;;24.85;17.15;;;;;;;17.65;42.54;99168.31;4101183;34;34162;-96
2020/12/05 09:51:41;;;;;;;23.48;17.33;;;;;;;19.17;40.46;99172.59;4122064;34;32767;-94
2020/12/05 09:54:17;;;;;;;21.42;16.00;;;;;;;19.41;39.53;99172.28;4124322;34;33004;-94
2020/12/05 09:56:50;;;;;;;25.58;17.05;;;;;;;19.41;39.36;99178.59;4116817;34;34527;-96
2020/12/05 09:59:28;;;;;;;27.17;18.10;;;;;;;18.16;41.73;99182.81;4120834;34;34602;-96
2020/12/05 10:02:04;;;;;;;26.52;16.25;;;;;;;17.98;41.64;99183.91;4107287;34;35033;-95
2020/12/05 10:05:00;;;;;;;24.42;16.50;;;;;;;16.99;44.51;99181.59;4109756;34;32345;-90
2020/12/05 10:07:32;;;;;;;20.98;15.80;;;;;;;17.40;43.85;99183.19;4097641;34;33922;-96
2020/12/05 10:10:23;;;;;;;25.12;17.30;;;;;;;17.99;42.32;99177.37;4107252;34;34204;-96
2020/12/05 10:12:55;;;;;;;25.77;17.52;;;;;;;16.77;44.75;99180.31;4113796;34;33790;-95
2020/12/05 10:15:28;;;;;;;23.38;17.23;;;;;;;16.69;45.03;99178.00;4115930;34;33357;-96
2020/12/05 10:18:01;;;;;;;25.42;16.90;;;;;;;16.87;44.99;99187.94;4118678;34;35203;-94
2020/12/05 10:20:53;;;;;;;22.25;16.17;;;;;;;16.90;44.84;99183.88;4120908;34;32610;-90
2020/12/05 10:23:27;;;;;;;21.33;14.68;;;;;;;17.00;45.21;99186.81;4112473;34;34252;-96
2020/12/05 10:26:13;;;;;;;25.65;16.27;;;;;;;17.01;44.68;99180.28;4127699;34;32474;-96
2020/12/05 10:28:47;;;;;;;21.58;15.70;;;;;;;17.66;43.46;99180.91;4133899;34;34342;-96
2020/12/05 10:31:23;;;;;;;22.23;15.30;;;;;;;18.29;42.72;99178.06;4111344;34;34209;-94
2020/12/05 10:33:55;;;;;;;20.23;15.07;;;;;;;18.55;41.92;99170.19;4132055;34;35402;-94
2020/12/05 10:36:32;;;;;;;18.50;13.25;;;;;;;19.00;41.42;99171.88;4130733;34;33176;-96
2020/12/05 10:39:05;;;;;;;24.40;15.18;;;;;;;19.65;39.39;99167.31;4138436;34;34463;-95
2020/12/05 10:41:53;;;;;;;21.17;16.12;;;;;;;20.76;36.83;99169.41;4147609;34;34570;-96
2020/12/05 10:44:27;;;;;;;19.30;14.15;;;;;;;20.74;36.53;99169.69;4162175;34;34227;-95
2020/12/05 10:47:01;;;;;;;21.08;15.27;;;;;;;20.35;37.39;99169.22;4157900;34;33843;-94
2020/12/05 10:49:33;;;;;;;21.10;14.82;;;;;;;20.81;36.56;99166.72;4150121;34;33004;-95
2020/12/05 10:52:10;;;;;;;21.42;16.62;;;;;;;20.46;37.33;99165.41;4138015;34;33297;-96
2020/12/05 10:54:44;;;;;;;20.65;14.80;;;;;;;20.15;37.13;99162.50;4154762;34;34427;-94
2020/12/05 10:57:35;;;;;;;23.10;16.80;;;;;;;20.24;37.31;99158.16;4154445;34;32365;-93
2020/12/05 11:00:08;;;;;;;21.15;15.60;;;;;;;22.02;34.42;99158.09;4171508;34;32785;-96
2020/12/05 11:02:41;;;;;;;19.67;14.07;;;;;;;22.13;33.80;99156.13;4163479;34;33054;-96
2020/12/05 11:05:14;;;;;;;21.17;15.32;;;;;;;22.39;33.33;99156.94;4178636;34;33159;-96
2020/12/05 11:07:49;;;;;;;18.73;14.82;;;;;;;20.11;36.70;99150.41;4128731;34;34158;-93
2020/12/05 11:10:22;;;;;;;21.12;15.00;;;;;;;20.41;36.42;99151.66;4156231;34;34584;-94
2020/12/05 11:12:54;;;;;;;20.37;15.48;;;;;;;20.04;37.39;99147.87;4155661;34;33846;-93
2020/12/05 11:15:28;;;;;;;20.73;15.68;;;;;;;20.40;36.64;99150.81;4155494;34;32830;-93
2020/12/05 11:18:03;;;;;;;22.20;16.23;;;;;;;19.50;38.45;99148.81;4141837;34;32777;-94
2020/12/05 11:20:38;;;;;;;21.12;14.85;;;;;;;19.47;38.87;99152.06;4141042;34;34430;-93
2020/12/05 11:23:14;;;;;;;21.95;15.82;;;;;;;18.61;40.46;99152.78;4152141;34;34357;-94
2020/12/05 11:25:47;;;;;;;22.90;16.98;;;;;;;19.10;39.57;99154.72;4163626;34;32857;-93
2020/12/05 11:28:21;;;;;;;23.90;16.90;;;;;;;17.82;42.37;99160.13;4151070;34;34758;-94
2020/12/05 11:31:10;;;;;;;;;;;;;;;17.23;43.58;99155.00;4176677;34;34058;-94
2020/12/05 11:33:43;;;;;;;28.65;17.23;;;;;;;17.20;44.46;99156.34;4188209;33;34245;-93
2020/12/05 11:36:16;;;;;;;23.23;16.90;;;;;;;16.24;46.33;99159.56;4171763;34;34252;-95
2020/12/05 11:38:49;;;;;;;24.63;17.75;;;;;;;15.97;47.32;99156.50;4182362;34;33905;-92
2020/12/05 11:41:24;;;;;;;29.42;18.15;;;;;;;15.22;49.36;99164.16;4179478;34;35030;-95
2020/12/05 11:44:12;;;;;;;23.50;16.10;;;;;;;14.72;51.19;99164.44;4187805;34;34060;-95
2020/12/05 11:46:45;;;;;;;22.90;15.95;;;;;;;14.18;52.85;99165.00;4196236;28;33371;-96
2020/12/05 11:49:34;;;;;;;24.55;16.40;;;;;;;14.25;52.47;99171.22;4171374;34;34674;-93
2020/12/05 11:52:06;;;;;;;27.75;16.20;;;;;;;13.92;53.43;99166.09;4172819;34;32768;-93
2020/12/05 11:55:02;;;;;;;22.58;16.00;;;;;;;14.29;52.79;99158.81;4180531;34;34585;-95
2020/12/05 11:57:37;;;;;;;24.10;15.48;;;;;;;14.25;53.12;99164.94;4171627;34;32933;-92
2020/12/05 12:00:22;;;;;;;29.15;17.83;;;;;;;14.43;52.65;99166.81;4166914;34;32249;-95
2020/12/05 12:03:12;;;;;;;;;;;;;;;14.72;52.14;99164.44;4154523;34;34924;-96
2020/12/05 12:05:51;;;;;;;27.33;16.77;;;;;;;14.80;51.74;99162.22;4155519;34;34548;-96
2020/12/05 12:08:40;;;;;;;26.90;17.00;;;;;;;14.94;52.38;99167.47;4172032;34;34541;-90
2020/12/05 12:11:18;;;;;;;27.75;16.48;;;;;;;15.03;51.58;99157.09;4167495;34;34472;-91
2020/12/05 12:14:04;;;;;;;26.50;16.53;;;;;;;14.94;51.83;99162.03;4166659;34;33604;-96
2020/12/05 12:16:48;;;;;;;25.48;16.85;;;;;;;15.14;51.42;99169.94;4168246;34;33443;-92
2020/12/05 12:19:22;;;;;;;27.67;17.60;;;;;;;15.04;51.57;99164.22;4172504;34;35050;-96
2020/12/05 12:21:55;;;;;;;27.73;18.50;;;;;;;14.58;52.31;99169.16;4157364;34;34462;-93
2020/12/05 12:24:28;;;;;;;27.62;18.08;;;;;;;13.94;54.31;99169.44;4168878;34;34585;-96
2020/12/05 12:27:01;;;;;;;29.25;18.60;;;;;;;15.02;52.38;99167.16;4157558;34;33345;-96
2020/12/05 12:30:03;;;;;;;26.00;16.87;;;;;;;15.51;50.63;99172.53;4164779;34;20155;-96
2020/12/05 12:32:37;;;;;;;27.42;18.30;;;;;;;16.05;48.86;99167.06;4155308;34;33869;-95
2020/12/05 12:35:24;;;;;;;24.27;16.40;;;;;;;17.81;44.71;99169.38;4166089;34;34334;-92
2020/12/05 12:37:57;;;;;;;22.83;15.75;;;;;;;19.86;40.38;99162.84;4155461;34;33156;-96
2020/12/05 12:40:44;;;;;;;24.48;16.15;;;;;;;20.68;38.33;99164.47;4141201;34;33949;-94
2020/12/05 12:43:19;;;;;;;21.58;16.10;;;;;;;21.70;36.13;99155.63;4143670;34;31818;-93
2020/12/05 12:45:55;;;;;;;21.83;16.00;;;;;;;22.29;35.09;99153.34;4141427;34;34581;-91
2020/12/05 12:51:03;;;;;;;22.65;14.85;;;;;;;22.69;34.27;99154.34;4168394;34;34503;-95
2020/12/05 12:53:36;;;;;;;23.10;15.63;;;;;;;24.14;31.61;99144.78;4156087;34;33540;-92
2020/12/05 12:56:10;;;;;;;21.65;14.82;;;;;;;24.15;31.11;99142.88;4157971;34;34083;-95
2020/12/05 12:58:46;;;;;;;21.23;16.55;;;;;;;21.75;34.82;99152.88;4156898;34;32916;-96
2020/12/05 13:01:41;;;;;;;16.73;13.60;;;;;;;24.58;30.71;99147.63;4140375;34;35051;-94
2020/12/05 13:04:14;;;;;;;21.62;14.90;;;;;;;24.66;30.83;99149.78;4151247;34;32033;-96
2020/12/05 13:07:10;;;;;;;21.12;15.45;;;;;;;23.85;31.48;99144.81;4131031;34;32132;-94
2020/12/05 13:09:44;;;;;;;21.02;16.00;;;;;;;24.32;30.80;99153.44;4149176;34;34751;-96
2020/12/05 13:12:36;;;;;;;24.27;15.57;;;;;;;22.42;34.21;99140.97;4150292;34;33158;-95
2020/12/05 13:15:23;;;;;;;20.02;15.48;;;;;;;20.97;36.77;99154.69;4143713;34;32575;-96
2020/12/05 13:18:10;;;;;;;19.42;13.75;;;;;;;21.50;36.46;99150.94;4144483;34;34920;-93